Time;durP1;ratioP1;P1;durP2;ratioP2;P2;SDS_P1;SDS_P2;PMS_P1;PMS_P2;Temp;Humidity;BMP_temperature;BMP_pressure;BME280_temperature;BME280_humidity;BME280_pressure;Samples;Min_cycle;Max_cycle;Signal;HPM_P1;HPM_P2
2023/05/07 00:00:20;;;;;;;10.70;4.37;;;12.10;53.60;;;;;;5076552;28;45871;-65
2023/05/07 00:02:46;;;;;;;7.73;4.63;;;12.10;52.50;;;;;;5077920;28;45917;-65
2023/05/07 00:05:12;;;;;;;9.33;4.20;;;12.00;53.50;;;;;;5078663;28;46405;-65
2023/05/07 00:07:38;;;;;;;5.07;3.30;;;12.00;54.70;;;;;;5080532;28;46388;-66
2023/05/07 00:10:06;;;;;;;6.50;3.80;;;11.90;53.40;;;;;;5078637;27;46370;-65
2023/05/07 00:12:33;;;;;;;14.07;3.90;;;11.90;53.10;;;;;;5078327;28;46627;-65
2023/05/07 00:15:02;;;;;;;14.00;4.17;;;11.90;53.90;;;;;;5079632;28;46381;-64
2023/05/07 00:17:29;;;;;;;5.10;4.07;;;11.90;54.10;;;;;;5077267;28;46392;-65
2023/05/07 00:19:54;;;;;;;6.90;4.23;;;11.80;54.00;;;;;;5082242;28;46416;-65
2023/05/07 00:22:20;;;;;;;4.80;3.67;;;11.80;53.60;;;;;;5079387;28;46323;-65
2023/05/07 00:24:45;;;;;;;5.87;4.13;;;11.80;55.80;;;;;;5079237;28;45870;-63
2023/05/07 00:27:11;;;;;;;14.63;5.43;;;11.80;54.60;;;;;;5081291;28;46338;-65
2023/05/07 00:29:36;;;;;;;11.23;6.40;;;11.70;54.70;;;;;;5077001;28;46386;-65
2023/05/07 00:32:02;;;;;;;11.20;5.83;;;11.70;54.30;;;;;;5075833;28;46492;-64
2023/05/07 00:34:27;;;;;;;11.03;5.30;;;11.80;55.30;;;;;;5074422;28;46661;-63
2023/05/07 00:36:53;;;;;;;8.60;5.67;;;11.80;55.00;;;;;;5075548;28;46457;-65
2023/05/07 00:39:19;;;;;;;8.10;5.23;;;11.80;54.90;;;;;;5078169;28;46523;-65
2023/05/07 00:41:45;;;;;;;9.33;5.20;;;11.90;53.90;;;;;;5076143;28;46005;-64
2023/05/07 00:44:11;;;;;;;6.63;5.20;;;11.90;54.90;;;;;;5076643;28;46431;-63
2023/05/07 00:46:37;;;;;;;7.90;5.40;;;11.90;54.90;;;;;;5077100;28;46429;-65
2023/05/07 00:49:03;;;;;;;7.40;5.17;;;11.90;55.00;;;;;;5078683;28;45869;-65
2023/05/07 00:51:29;;;;;;;8.57;5.30;;;11.80;54.10;;;;;;5079603;28;47167;-65
2023/05/07 00:53:55;;;;;;;6.13;5.43;;;11.80;55.10;;;;;;5077981;28;46693;-65
2023/05/07 00:56:22;;;;;;;9.40;5.13;;;11.80;55.20;;;;;;5077969;28;46383;-65
2023/05/07 00:58:48;;;;;;;9.10;6.20;;;11.80;55.40;;;;;;5078845;28;46416;-64
2023/05/07 01:01:15;;;;;;;9.43;6.37;;;11.80;55.50;;;;;;5077775;28;46630;-64
2023/05/07 01:03:41;;;;;;;10.47;5.93;;;11.80;54.60;;;;;;5077615;28;46409;-65
2023/05/07 01:06:08;;;;;;;8.10;6.10;;;11.80;55.60;;;;;;5077533;28;46369;-64
2023/05/07 01:08:35;;;;;;;8.67;5.73;;;11.90;55.50;;;;;;5078574;28;46366;-66
2023/05/07 01:11:01;;;;;;;18.77;6.13;;;11.90;55.50;;;;;;5078394;28;47361;-65
2023/05/07 01:13:27;;;;;;;8.40;6.17;;;11.90;54.80;;;;;;5076081;28;46496;-65
2023/05/07 01:15:53;;;;;;;9.63;7.03;;;11.90;56.20;;;;;;5076772;28;46447;-65
2023/05/07 01:18:19;;;;;;;11.40;6.97;;;11.80;56.70;;;;;;5078738;28;45910;-65
2023/05/07 01:20:45;;;;;;;10.07;5.80;;;11.80;57.00;;;;;;5077044;28;47345;-65
2023/05/07 01:23:11;;;;;;;13.23;6.80;;;11.90;56.20;;;;;;5076441;28;46489;-65
2023/05/07 01:25:37;;;;;;;8.17;5.90;;;11.90;56.90;;;;;;5077306;28;46452;-65
2023/05/07 01:28:03;;;;;;;10.93;6.97;;;12.00;56.60;;;;;;5078981;28;46417;-65
2023/05/07 01:30:29;;;;;;;11.90;7.60;;;11.90;56.70;;;;;;5076462;28;46439;-65
2023/05/07 01:33:08;;;;;;;9.33;7.00;;;11.90;56.60;;;;;;5076491;28;46463;-65
2023/05/07 01:35:41;;;;;;;10.47;6.20;;;11.90;57.70;;;;;;5078056;28;46404;-65
2023/05/07 01:38:08;;;;;;;11.17;6.83;;;11.90;57.70;;;;;;5077513;28;46414;-66
2023/05/07 01:40:34;;;;;;;8.53;6.47;;;11.90;57.60;;;;;;5078466;28;48257;-66
2023/05/07 01:43:02;;;;;;;10.43;6.50;;;11.90;56.60;;;;;;5076556;28;46416;-65
2023/05/07 01:45:28;;;;;;;7.40;6.03;;;11.90;57.40;;;;;;5076009;28;45855;-66
2023/05/07 01:47:55;;;;;;;10.87;5.70;;;12.00;57.40;;;;;;5079013;28;46406;-65
2023/05/07 01:50:21;;;;;;;9.13;5.63;;;11.90;57.20;;;;;;5079277;28;48275;-65
2023/05/07 01:52:47;;;;;;;11.10;5.67;;;11.90;56.50;;;;;;5081156;28;46455;-66
2023/05/07 01:55:13;;;;;;;9.33;5.60;;;11.80;57.50;;;;;;5077557;28;46447;-65
2023/05/07 01:57:38;;;;;;;9.57;6.13;;;11.80;57.70;;;;;;5075541;28;46430;-65
2023/05/07 02:00:05;;;;;;;9.40;6.40;;;11.80;57.90;;;;;;5078060;28;46609;-65
2023/05/07 02:02:30;;;;;;;7.93;5.77;;;11.80;56.90;;;;;;5076633;28;46377;-65
2023/05/07 02:04:56;;;;;;;10.00;6.10;;;11.80;57.80;;;;;;5078136;28;46387;-65
2023/05/07 02:07:22;;;;;;;9.90;5.50;;;11.70;58.00;;;;;;5076208;28;46374;-64
2023/05/07 02:09:47;;;;;;;7.50;5.73;;;11.60;58.30;;;;;;5079162;28;47120;-65
2023/05/07 02:12:13;;;;;;;12.20;6.80;;;11.60;57.80;;;;;;5078609;28;46380;-65
2023/05/07 02:14:39;;;;;;;8.23;6.57;;;11.60;58.80;;;;;;5077216;28;46330;-65
2023/05/07 02:17:04;;;;;;;8.90;6.27;;;11.60;58.90;;;;;;5077352;28;46330;-65
2023/05/07 02:19:30;;;;;;;10.40;6.30;;;11.60;58.80;;;;;;5073929;28;47121;-66
2023/05/07 02:21:55;;;;;;;8.93;5.90;;;11.70;58.00;;;;;;5077699;28;46476;-65
2023/05/07 02:24:21;;;;;;;6.70;5.13;;;11.60;59.00;;;;;;5078839;28;46450;-65
2023/05/07 02:26:47;;;;;;;8.23;5.60;;;11.60;58.70;;;;;;5077773;28;46442;-65
2023/05/07 02:29:12;;;;;;;13.63;5.47;;;11.60;58.90;;;;;;5076529;28;46442;-65
2023/05/07 02:31:38;;;;;;;10.47;5.80;;;11.60;57.80;;;;;;5077376;27;46439;-65
2023/05/07 02:34:03;;;;;;;6.80;5.23;;;11.60;58.70;;;;;;5081214;28;45898;-66
2023/05/07 02:36:29;;;;;;;9.90;5.63;;;11.60;58.80;;;;;;5079105;28;46548;-65
2023/05/07 02:38:55;;;;;;;11.20;6.10;;;11.60;58.90;;;;;;5080119;28;48016;-65
2023/05/07 02:41:21;;;;;;;8.20;5.87;;;11.50;58.80;;;;;;5079051;28;45727;-65
2023/05/07 02:43:46;;;;;;;8.90;5.17;;;11.50;57.90;;;;;;5076230;28;46431;-65
2023/05/07 02:46:12;;;;;;;11.83;6.00;;;11.50;59.00;;;;;;5082624;28;46348;-65
2023/05/07 02:48:38;;;;;;;6.70;4.90;;;11.50;59.00;;;;;;5079853;28;46427;-65
2023/05/07 02:51:05;;;;;;;8.10;5.80;;;11.50;59.00;;;;;;5079860;28;46225;-65
2023/05/07 02:53:30;;;;;;;7.73;5.00;;;11.40;58.10;;;;;;5078590;28;45848;-65
2023/05/07 02:55:57;;;;;;;6.87;4.97;;;11.40;59.40;;;;;;5079522;28;46530;-66
2023/05/07 02:58:23;;;;;;;6.73;4.83;;;11.30;59.40;;;;;;5080796;28;46442;-65
2023/05/07 03:00:49;;;;;;;9.33;6.40;;;11.30;59.70;;;;;;5082304;28;46468;-65
2023/05/07 03:03:14;;;;;;;9.77;6.00;;;11.20;59.10;;;;;;5078392;28;46185;-65
2023/05/07 03:05:40;;;;;;;10.53;7.20;;;11.10;60.10;;;;;;5081071;28;46372;-66
2023/05/07 03:08:06;;;;;;;11.00;6.93;;;11.10;60.40;;;;;;5078042;28;47052;-65
2023/05/07 03:10:32;;;;;;;11.30;6.30;;;11.20;60.60;;;;;;5078264;28;46243;-65
2023/05/07 03:12:57;;;;;;;11.17;6.40;;;11.20;59.70;;;;;;5080411;28;46348;-66
2023/05/07 03:15:23;;;;;;;10.93;5.50;;;11.20;60.50;;;;;;5079869;28;46527;-65
2023/05/07 03:17:48;;;;;;;8.23;6.07;;;11.20;61.70;;;;;;5078048;28;48058;-65
2023/05/07 03:20:14;;;;;;;8.17;6.53;;;11.10;60.90;;;;;;5079917;28;46346;-65
2023/05/07 03:22:40;;;;;;;9.73;6.67;;;11.00;60.60;;;;;;5075032;28;46520;-65
2023/05/07 03:25:06;;;;;;;10.30;6.10;;;11.00;61.60;;;;;;5082309;28;46474;-66
2023/05/07 03:27:32;;;;;;;7.60;5.90;;;11.00;61.40;;;;;;5076062;28;46798;-66
2023/05/07 03:29:57;;;;;;;11.50;6.27;;;11.00;61.30;;;;;;5079023;28;46423;-65
2023/05/07 03:32:23;;;;;;;10.30;5.60;;;10.90;60.50;;;;;;5075599;28;46462;-65
2023/05/07 03:34:49;;;;;;;8.10;5.90;;;10.90;61.60;;;;;;5079623;28;46340;-65
2023/05/07 03:37:15;;;;;;;9.00;6.17;;;10.90;61.50;;;;;;5080437;28;46707;-66
2023/05/07 03:39:40;;;;;;;8.93;6.10;;;10.90;61.40;;;;;;5078682;28;46430;-64
2023/05/07 03:42:06;;;;;;;9.00;6.40;;;11.00;60.10;;;;;;5080432;28;45750;-66
2023/05/07 03:44:31;;;;;;;8.90;6.10;;;11.00;61.10;;;;;;5075692;28;46399;-66
2023/05/07 03:46:57;;;;;;;12.23;7.20;;;11.00;60.90;;;;;;5080392;28;46933;-66
2023/05/07 03:49:22;;;;;;;9.30;7.30;;;10.90;61.10;;;;;;5081093;28;46471;-65
2023/05/07 03:51:48;;;;;;;11.83;7.00;;;10.90;61.20;;;;;;5073653;28;46368;-65
2023/05/07 03:54:14;;;;;;;13.03;7.73;;;10.90;61.50;;;;;;5082012;28;46271;-64
2023/05/07 03:56:39;;;;;;;10.80;7.13;;;10.90;61.50;;;;;;5078423;28;47249;-65
2023/05/07 03:59:05;;;;;;;9.90;6.40;;;10.90;61.40;;;;;;5079716;28;46576;-65
2023/05/07 04:01:31;;;;;;;8.67;6.27;;;10.90;60.50;;;;;;5075150;28;45877;-65
2023/05/07 04:03:56;;;;;;;14.10;6.13;;;10.90;61.50;;;;;;5078400;28;46013;-65
2023/05/07 04:06:22;;;;;;;10.13;6.07;;;10.90;61.60;;;;;;5078731;28;47940;-64
2023/05/07 04:08:48;;;;;;;9.40;6.00;;;10.90;61.70;;;;;;5081034;28;46610;-65
2023/05/07 04:11:13;;;;;;;9.23;6.17;;;10.80;61.60;;;;;;5081486;28;46469;-65
2023/05/07 04:13:39;;;;;;;10.97;6.87;;;10.80;60.70;;;;;;5078370;28;46600;-65
2023/05/07 04:16:05;;;;;;;8.73;6.27;;;10.90;61.80;;;;;;5078526;28;47114;-65
2023/05/07 04:18:31;;;;;;;11.40;7.33;;;10.90;61.70;;;;;;5080829;28;46583;-65
2023/05/07 04:20:56;;;;;;;8.00;5.93;;;11.00;61.40;;;;;;5077747;28;46473;-65
2023/05/07 04:23:22;;;;;;;13.73;6.80;;;11.00;60.20;;;;;;5080855;28;46413;-64
2023/05/07 04:25:48;;;;;;;10.13;6.97;;;11.10;61.30;;;;;;5075675;28;47611;-64
2023/05/07 04:28:13;;;;;;;20.27;13.50;;;11.10;61.60;;;;;;5080279;28;46311;-65
2023/05/07 04:30:39;;;;;;;23.87;14.33;;;11.20;62.00;;;;;;5078984;28;45893;-65
2023/05/07 04:33:06;;;;;;;19.50;13.17;;;11.30;60.80;;;;;;5079236;28;46565;-65
2023/05/07 04:35:32;;;;;;;18.07;11.83;;;11.40;61.70;;;;;;5076996;28;47275;-65
2023/05/07 04:37:57;;;;;;;14.97;9.60;;;11.60;61.20;;;;;;5079955;28;46377;-65
2023/05/07 04:40:23;;;;;;;15.60;10.00;;;11.70;61.10;;;;;;5080561;28;46455;-66
2023/05/07 04:42:49;;;;;;;16.07;10.67;;;11.80;60.90;;;;;;5079410;28;45960;-65
2023/05/07 04:45:15;;;;;;;12.90;8.90;;;11.90;60.60;;;;;;5080313;28;46920;-65
2023/05/07 04:47:40;;;;;;;17.33;10.80;;;11.90;60.40;;;;;;5078797;28;46554;-65
2023/05/07 04:50:09;;;;;;;13.50;9.90;;;12.00;60.20;;;;;;5080720;28;46375;-65
2023/05/07 04:52:34;;;;;;;23.67;16.70;;;12.30;59.60;;;;;;5078677;28;46513;-65
2023/05/07 04:55:00;;;;;;;17.73;10.90;;;13.00;58.40;;;;;;5077764;28;46377;-65
2023/05/07 04:57:26;;;;;;;14.90;10.37;;;14.20;57.50;;;;;;5078059;28;46477;-65
2023/05/07 04:59:53;;;;;;;19.87;12.90;;;15.50;56.70;;;;;;5077584;28;46362;-66
2023/05/07 05:02:19;;;;;;;13.07;9.10;;;16.70;52.70;;;;;;5080122;28;46341;-65
2023/05/07 05:04:45;;;;;;;9.23;6.90;;;17.60;50.10;;;;;;5077777;28;46140;-65
2023/05/07 05:07:10;;;;;;;11.50;5.20;;;18.00;48.50;;;;;;5075780;28;46401;-65
2023/05/07 05:09:36;;;;;;;7.63;4.83;;;18.60;47.70;;;;;;5078316;28;46440;-65
2023/05/07 05:12:01;;;;;;;5.73;4.00;;;18.80;46.60;;;;;;5075749;28;46451;-66
2023/05/07 05:14:27;;;;;;;7.87;4.43;;;19.10;46.90;;;;;;5075161;28;47148;-65
2023/05/07 05:16:52;;;;;;;11.10;5.63;;;19.50;45.70;;;;;;5077262;28;46372;-65
2023/05/07 05:19:18;;;;;;;6.73;4.67;;;19.60;45.50;;;;;;5080584;28;46475;-66
2023/05/07 05:21:44;;;;;;;10.10;6.40;;;19.80;45.00;;;;;;5076843;28;46598;-65
2023/05/07 05:24:09;;;;;;;12.40;5.70;;;20.30;43.50;;;;;;5076101;28;46740;-65
2023/05/07 05:26:35;;;;;;;7.23;4.93;;;20.80;41.50;;;;;;5078232;28;46428;-66
2023/05/07 05:29:01;;;;;;;8.93;6.00;;;21.40;39.30;;;;;;5080187;28;46436;-65
2023/05/07 05:31:26;;;;;;;7.57;5.73;;;23.00;31.60;;;;;;5080045;28;45972;-66
2023/05/07 05:33:52;;;;;;;11.33;6.10;;;22.90;33.10;;;;;;5079132;28;47267;-65
2023/05/07 05:36:17;;;;;;;7.67;5.60;;;23.50;29.60;;;;;;5076937;28;46462;-65
2023/05/07 05:38:44;;;;;;;8.77;5.60;;;24.10;28.00;;;;;;5073907;28;46398;-65
2023/05/07 05:41:09;;;;;;;8.27;5.50;;;24.50;26.50;;;;;;5078942;28;46714;-65
2023/05/07 05:43:35;;;;;;;7.83;5.00;;;24.90;25.70;;;;;;5075738;28;46392;-65
2023/05/07 05:46:01;;;;;;;10.33;5.60;;;25.10;24.30;;;;;;5074274;28;46471;-66
2023/05/07 05:48:26;;;;;;;8.07;5.53;;;25.40;23.30;;;;;;5076143;28;46352;-64
2023/05/07 05:50:52;;;;;;;11.67;6.90;;;25.50;23.20;;;;;;5077262;28;46505;-64
2023/05/07 05:53:18;;;;;;;9.23;6.47;;;25.80;22.40;;;;;;5078573;28;46514;-66
2023/05/07 05:55:43;;;;;;;12.40;6.53;;;25.90;20.90;;;;;;5071073;28;46514;-65
2023/05/07 05:58:09;;;;;;;10.13;5.93;;;25.90;19.80;;;;;;5077609;28;46392;-65
2023/05/07 06:00:35;;;;;;;12.90;7.47;;;25.80;19.70;;;;;;5076542;28;46595;-66
2023/05/07 06:03:00;;;;;;;9.30;5.50;;;26.10;19.60;;;;;;5074857;28;47070;-66
2023/05/07 06:05:26;;;;;;;9.37;5.80;;;26.20;18.60;;;;;;5077065;28;46408;-64
2023/05/07 06:07:52;;;;;;;8.80;5.53;;;26.40;18.30;;;;;;5078979;27;46439;-65
2023/05/07 06:10:17;;;;;;;7.17;5.27;;;26.70;17.10;;;;;;5077542;28;45936;-66
2023/05/07 06:12:43;;;;;;;7.80;5.90;;;27.10;16.00;;;;;;5080962;28;47047;-66
2023/05/07 06:15:09;;;;;;;9.60;5.83;;;27.50;15.70;;;;;;5080359;28;46311;-65
2023/05/07 06:17:35;;;;;;;8.00;5.47;;;27.60;15.00;;;;;;5080898;28;46703;-67
2023/05/07 06:20:00;;;;;;;7.60;5.73;;;27.50;14.80;;;;;;5081132;28;46603;-66
2023/05/07 06:22:26;;;;;;;10.57;4.67;;;26.50;18.00;;;;;;5079839;28;46247;-67
2023/05/07 06:24:51;;;;;;;7.57;5.37;;;25.40;21.30;;;;;;5080272;28;46426;-67
2023/05/07 06:27:17;;;;;;;8.73;4.67;;;24.40;24.20;;;;;;5080834;28;46372;-67
2023/05/07 06:29:42;;;;;;;7.67;5.00;;;23.60;25.00;;;;;;5081534;28;46320;-66
2023/05/07 06:32:12;;;;;;;6.50;4.23;;;23.70;23.40;;;;;;5080785;28;46464;-66
2023/05/07 06:34:38;;;;;;;6.40;4.50;;;25.00;19.80;;;;;;5077865;28;46466;-66
2023/05/07 06:37:05;;;;;;;7.50;4.10;;;25.80;17.10;;;;;;5083556;28;46359;-66
2023/05/07 06:39:30;;;;;;;5.90;4.67;;;26.40;15.60;;;;;;5080865;28;46522;-66
2023/05/07 06:41:56;;;;;;;8.17;4.10;;;27.00;14.10;;;;;;5080361;27;46781;-67
2023/05/07 06:44:22;;;;;;;11.50;4.63;;;27.10;13.60;;;;;;5079863;28;46388;-65
2023/05/07 06:46:49;;;;;;;4.70;3.30;;;27.10;13.20;;;;;;5076344;28;46428;-64
2023/05/07 06:49:18;;;;;;;5.40;3.10;;;27.10;12.90;;;;;;5076015;28;46408;-64
2023/05/07 06:51:46;;;;;;;6.63;3.37;;;27.10;11.50;;;;;;5074610;28;46443;-64
2023/05/07 06:54:14;;;;;;;5.60;3.57;;;27.20;12.20;;;;;;5077088;28;46543;-65
2023/05/07 06:56:43;;;;;;;6.20;3.40;;;27.40;11.60;;;;;;5078787;28;47181;-65
2023/05/07 06:59:20;;;;;;;6.50;3.37;;;26.90;11.50;;;;;;5079937;28;46009;-65
2023/05/07 07:01:46;;;;;;;7.07;4.00;;;26.80;12.50;;;;;;5076163;28;46423;-65
2023/05/07 07:04:12;;;;;;;8.93;4.50;;;25.20;16.00;;;;;;5080911;28;46297;-65
2023/05/07 07:06:38;;;;;;;7.43;4.07;;;23.80;19.40;;;;;;5079066;28;46326;-68
2023/05/07 07:09:03;;;;;;;4.50;3.53;;;22.90;21.60;;;;;;5081452;28;46449;-67
2023/05/07 07:11:31;;;;;;;7.67;4.40;;;22.00;23.00;;;;;;5080791;28;46388;-64
2023/05/07 07:13:58;;;;;;;8.07;4.20;;;21.70;24.40;;;;;;5079298;28;46492;-66
2023/05/07 07:16:26;;;;;;;7.93;4.67;;;21.70;25.20;;;;;;5080865;28;46506;-66
2023/05/07 07:18:53;;;;;;;7.10;4.43;;;21.60;25.60;;;;;;5080233;27;46573;-66
2023/05/07 07:21:19;;;;;;;10.80;4.90;;;21.40;26.20;;;;;;5078902;28;46381;-67
2023/05/07 07:23:46;;;;;;;6.10;4.53;;;21.60;25.30;;;;;;5079610;28;47250;-67
2023/05/07 07:26:11;;;;;;;7.50;3.73;;;21.60;26.30;;;;;;5080056;28;45913;-66
2023/05/07 07:28:46;;;;;;;5.63;3.83;;;21.80;26.20;;;;;;5079053;28;46399;-64
2023/05/07 07:31:13;;;;;;;10.50;4.07;;;22.00;25.90;;;;;;5063294;28;46762;-66
2023/05/07 07:33:40;;;;;;;6.57;3.57;;;22.10;25.00;;;;;;5077188;28;46426;-66
2023/05/07 07:36:07;;;;;;;6.63;3.60;;;22.20;25.60;;;;;;5080307;28;46384;-65
2023/05/07 07:38:33;;;;;;;5.90;3.60;;;22.20;25.50;;;;;;5072906;28;46609;-66
2023/05/07 07:41:00;;;;;;;6.43;3.43;;;22.30;25.50;;;;;;5076165;27;46347;-66
2023/05/07 07:43:32;;;;;;;4.60;3.30;;;22.20;24.70;;;;;;5073741;28;46562;-64
2023/05/07 07:46:03;;;;;;;6.10;3.13;;;22.00;24.40;;;;;;5074954;27;46391;-65
2023/05/07 07:48:34;;;;;;;5.43;3.37;;;21.80;24.10;;;;;;5078514;28;46414;-65
2023/05/07 07:51:01;;;;;;;5.67;3.47;;;21.70;24.70;;;;;;5075080;28;48246;-66
2023/05/07 07:53:27;;;;;;;8.63;3.90;;;21.60;23.90;;;;;;5074023;28;46599;-67
2023/05/07 07:55:54;;;;;;;5.33;3.23;;;21.50;24.90;;;;;;5078403;28;46413;-64
2023/05/07 07:58:22;;;;;;;8.10;3.93;;;21.80;24.80;;;;;;5078892;28;46504;-62
2023/05/07 08:00:49;;;;;;;5.93;3.23;;;21.60;24.60;;;;;;5072027;27;46438;-63
2023/05/07 08:03:16;;;;;;;6.50;3.37;;;21.60;24.60;;;;;;5077238;28;46461;-65
2023/05/07 08:05:43;;;;;;;5.83;3.80;;;21.70;25.00;;;;;;5077818;28;45888;-64
2023/05/07 08:08:12;;;;;;;5.90;3.23;;;21.80;25.20;;;;;;5078541;28;46491;-63
2023/05/07 08:10:39;;;;;;;5.67;3.30;;;21.90;25.20;;;;;;5071557;28;47060;-63
2023/05/07 08:13:07;;;;;;;7.90;3.80;;;21.80;25.40;;;;;;5078284;28;46680;-64
2023/05/07 08:15:35;;;;;;;5.73;3.47;;;22.10;25.30;;;;;;5076227;28;46634;-63
2023/05/07 08:18:03;;;;;;;7.77;3.40;;;22.30;25.00;;;;;;5076071;28;46805;-65
2023/05/07 08:20:31;;;;;;;6.67;3.27;;;22.10;24.60;;;;;;5071257;28;46644;-63
2023/05/07 08:22:56;;;;;;;5.50;3.40;;;22.00;23.90;;;;;;5075399;28;46913;-64
2023/05/07 08:25:25;;;;;;;12.90;3.80;;;22.10;24.80;;;;;;5077656;28;46477;-65
2023/05/07 08:27:53;;;;;;;5.57;3.53;;;22.10;24.00;;;;;;5077338;28;46944;-65
2023/05/07 08:30:21;;;;;;;5.30;3.40;;;21.90;24.30;;;;;;5075401;27;48689;-65
2023/05/07 08:32:52;;;;;;;7.57;4.33;;;21.70;23.90;;;;;;5072577;28;46650;-65
2023/05/07 08:35:21;;;;;;;7.70;4.23;;;21.80;24.80;;;;;;5075843;28;46404;-65
2023/05/07 08:37:50;;;;;;;6.53;3.70;;;22.00;24.20;;;;;;5068915;28;46487;-65
2023/05/07 08:40:22;;;;;;;7.30;3.90;;;22.00;23.90;;;;;;5074929;28;46511;-66
2023/05/07 08:42:54;;;;;;;5.23;3.20;;;22.00;23.60;;;;;;5076905;28;46498;-66
2023/05/07 08:45:23;;;;;;;7.70;4.10;;;22.10;23.90;;;;;;5076443;28;46494;-65
2023/05/07 08:47:58;;;;;;;7.20;3.30;;;22.10;24.90;;;;;;5079235;28;46641;-65
2023/05/07 08:50:27;;;;;;;7.73;4.40;;;22.00;23.80;;;;;;5073577;28;46486;-66
2023/05/07 08:52:56;;;;;;;4.97;3.60;;;21.80;23.70;;;;;;5078005;28;46440;-66
2023/05/07 08:55:29;;;;;;;4.27;3.33;;;21.70;23.80;;;;;;5075024;28;46279;-66
2023/05/07 08:57:57;;;;;;;5.80;3.70;;;21.80;23.70;;;;;;5073218;28;45840;-67
2023/05/07 09:00:24;;;;;;;6.40;3.67;;;21.90;23.80;;;;;;5080112;28;46468;-65
2023/05/07 09:02:52;;;;;;;9.50;3.77;;;22.00;22.50;;;;;;5076805;28;46435;-62
2023/05/07 09:05:19;;;;;;;11.40;4.10;;;22.00;23.70;;;;;;5076223;28;46501;-62
2023/05/07 09:07:46;;;;;;;6.27;3.60;;;22.10;23.30;;;;;;5078818;28;46420;-64
2023/05/07 09:10:12;;;;;;;5.90;3.70;;;22.20;23.00;;;;;;5078989;28;46564;-67
2023/05/07 09:12:42;;;;;;;4.60;2.77;;;22.10;22.10;;;;;;5077724;28;46510;-66
2023/05/07 09:15:12;;;;;;;6.30;3.00;;;22.20;22.80;;;;;;5075383;28;46497;-65
2023/05/07 09:17:42;;;;;;;4.60;3.10;;;22.10;22.50;;;;;;5080911;28;46378;-66
2023/05/07 09:20:12;;;;;;;5.50;3.17;;;22.00;23.30;;;;;;5076717;28;46874;-66
2023/05/07 09:22:38;;;;;;;5.40;3.30;;;22.10;21.10;;;;;;5077912;28;45998;-65
2023/05/07 09:25:09;;;;;;;7.00;4.87;;;22.20;22.20;;;;;;5076339;28;46321;-65
2023/05/07 09:27:37;;;;;;;6.50;4.20;;;22.20;22.20;;;;;;5074918;28;46207;-66
2023/05/07 09:30:09;;;;;;;7.10;4.30;;;22.00;22.70;;;;;;5077625;28;47186;-67
2023/05/07 09:32:40;;;;;;;10.00;4.87;;;21.90;23.00;;;;;;5075643;28;46385;-67
2023/05/07 09:35:14;;;;;;;9.03;5.00;;;21.80;23.10;;;;;;5078740;28;46488;-65
2023/05/07 09:37:41;;;;;;;7.20;4.30;;;22.00;22.90;;;;;;5077811;28;46327;-65
2023/05/07 09:40:19;;;;;;;8.60;4.73;;;22.20;22.50;;;;;;5076455;27;48084;-64
2023/05/07 09:42:47;;;;;;;8.23;4.33;;;22.10;21.50;;;;;;5077252;28;46424;-64
2023/05/07 09:45:26;;;;;;;9.00;4.10;;;22.00;22.30;;;;;;5076548;28;46495;-64
2023/05/07 09:47:58;;;;;;;6.53;4.00;;;22.00;22.70;;;;;;5077641;28;46245;-65
2023/05/07 09:50:36;;;;;;;9.27;4.10;;;22.20;22.50;;;;;;5077274;28;46470;-66
2023/05/07 09:53:05;;;;;;;6.17;3.60;;;22.40;21.30;;;;;;5093435;27;46397;-65
2023/05/07 09:55:33;;;;;;;5.10;3.50;;;22.30;21.20;;;;;;5074100;28;46485;-65
2023/05/07 09:58:02;;;;;;;6.40;3.70;;;22.20;21.60;;;;;;5077816;28;46441;-64
2023/05/07 10:00:31;;;;;;;8.40;4.20;;;22.10;21.40;;;;;;5077629;28;46396;-63
2023/05/07 10:03:03;;;;;;;8.73;4.13;;;22.30;20.50;;;;;;5078187;28;47241;-65
2023/05/07 10:05:32;;;;;;;5.83;3.63;;;22.30;21.10;;;;;;5081334;28;46253;-63
2023/05/07 10:08:01;;;;;;;6.40;3.63;;;22.20;20.40;;;;;;5075708;28;46563;-66
2023/05/07 10:10:32;;;;;;;4.70;2.80;;;22.40;21.40;;;;;;5077754;27;47548;-64
2023/05/07 10:12:59;;;;;;;7.20;3.70;;;22.70;20.40;;;;;;5074802;28;46581;-64
2023/05/07 10:15:27;;;;;;;4.60;3.47;;;22.90;20.20;;;;;;5075968;28;46404;-64
2023/05/07 10:17:56;;;;;;;6.83;4.00;;;23.20;19.40;;;;;;5074009;27;46604;-64
2023/05/07 10:20:23;;;;;;;10.80;4.30;;;23.20;19.20;;;;;;5076187;28;46935;-64
2023/05/07 10:22:52;;;;;;;7.53;4.07;;;23.20;18.40;;;;;;5058388;28;46714;-65
2023/05/07 10:25:26;;;;;;;5.10;3.47;;;23.20;19.50;;;;;;5070878;28;46428;-65
2023/05/07 10:27:55;;;;;;;5.83;3.43;;;23.40;19.00;;;;;;5072454;28;46307;-64
2023/05/07 10:30:56;;;;;;;12.60;3.47;;;23.20;19.10;;;;;;5074475;28;46502;-66
2023/05/07 10:33:28;;;;;;;4.40;2.77;;;23.10;18.50;;;;;;5075926;27;46378;-66
2023/05/07 10:36:01;;;;;;;4.23;2.67;;;23.30;18.60;;;;;;5072941;28;46430;-66
2023/05/07 10:38:28;;;;;;;4.10;2.10;;;23.40;18.10;;;;;;5073346;28;46581;-65
2023/05/07 10:40:55;;;;;;;6.43;2.80;;;23.30;17.80;;;;;;5072208;28;47768;-65
2023/05/07 10:43:22;;;;;;;8.57;2.70;;;23.50;17.50;;;;;;5072541;28;46523;-65
2023/05/07 10:46:17;;;;;;;5.40;2.43;;;23.80;16.70;;;;;;5079257;28;46385;-63
2023/05/07 10:49:11;;;;;;;3.63;2.20;;;23.90;16.00;;;;;;5077022;28;46314;-65
2023/05/07 10:51:38;;;;;;;6.43;2.43;;;23.60;14.70;;;;;;5076448;28;46336;-66
2023/05/07 10:54:11;;;;;;;5.70;2.17;;;23.60;15.40;;;;;;5074499;27;46380;-65
2023/05/07 10:56:42;;;;;;;5.30;2.53;;;23.60;15.20;;;;;;5078080;28;46521;-66
2023/05/07 10:59:26;;;;;;;4.53;2.20;;;23.70;14.60;;;;;;5071110;27;46846;-65
2023/05/07 11:02:02;;;;;;;7.23;2.47;;;23.90;14.60;;;;;;5095497;27;47696;-65
2023/05/07 11:04:31;;;;;;;4.37;2.00;;;24.00;14.20;;;;;;5079080;28;46583;-65
2023/05/07 11:07:11;;;;;;;3.90;2.33;;;24.30;14.30;;;;;;5078449;28;46281;-66
2023/05/07 11:09:52;;;;;;;3.57;2.27;;;24.10;14.30;;;;;;5079105;28;46200;-66
2023/05/07 11:12:40;;;;;;;6.43;2.23;;;24.00;13.30;;;;;;5079997;28;46624;-65
2023/05/07 11:15:11;;;;;;;5.67;2.20;;;24.00;14.20;;;;;;5073711;27;46679;-64
2023/05/07 11:17:54;;;;;;;5.80;2.07;;;24.10;14.20;;;;;;5080138;28;46395;-66
2023/05/07 11:20:43;;;;;;;5.00;2.70;;;24.10;14.20;;;;;;5055749;28;46621;-66
2023/05/07 11:23:32;;;;;;;4.57;2.13;;;24.10;13.40;;;;;;5077814;28;46374;-63
2023/05/07 11:26:07;;;;;;;3.67;2.20;;;24.00;14.20;;;;;;5080243;28;46388;-67
2023/05/07 11:28:43;;;;;;;5.83;2.33;;;24.00;14.10;;;;;;5079866;28;46437;-65
2023/05/07 11:31:10;;;;;;;5.07;1.80;;;24.20;14.30;;;;;;5077418;28;46603;-65
2023/05/07 11:33:37;;;;;;;4.40;2.10;;;24.20;13.40;;;;;;5068352;27;46605;-67
2023/05/07 11:36:07;;;;;;;4.07;2.17;;;24.30;14.40;;;;;;5071041;27;46428;-67
2023/05/07 11:38:40;;;;;;;5.17;2.10;;;24.40;14.40;;;;;;5079122;28;46778;-67
2023/05/07 11:41:07;;;;;;;3.50;1.90;;;24.60;14.00;;;;;;5079494;28;46084;-68
2023/05/07 11:43:33;;;;;;;5.90;1.87;;;24.40;13.10;;;;;;5076719;28;46666;-67
2023/05/07 11:46:12;;;;;;;10.67;2.00;;;24.20;13.80;;;;;;5078930;28;46314;-67
2023/05/07 11:48:38;;;;;;;7.90;2.50;;;24.20;13.80;;;;;;5080098;28;46529;-67
2023/05/07 11:51:13;;;;;;;3.40;1.90;;;24.20;13.70;;;;;;5076439;28;46661;-67
2023/05/07 11:53:40;;;;;;;3.67;2.10;;;24.10;12.30;;;;;;5080078;28;47033;-67
2023/05/07 11:56:07;;;;;;;5.70;2.20;;;24.20;13.70;;;;;;5079814;28;46332;-67
2023/05/07 11:58:33;;;;;;;5.53;1.80;;;24.00;13.60;;;;;;5080880;28;46418;-66
2023/05/07 12:00:59;;;;;;;4.00;2.20;;;23.80;13.50;;;;;;5078673;28;46368;-66
2023/05/07 12:03:24;;;;;;;4.80;2.10;;;24.00;13.90;;;;;;5076969;28;47168;-66
2023/05/07 12:05:50;;;;;;;3.80;2.07;;;24.00;14.20;;;;;;5079221;28;46446;-67
2023/05/07 12:08:16;;;;;;;6.57;2.47;;;24.20;13.90;;;;;;5077566;28;45969;-66
2023/05/07 12:10:43;;;;;;;9.20;2.10;;;24.00;14.20;;;;;;5077234;28;46426;-66
2023/05/07 12:13:16;;;;;;;4.33;2.13;;;24.00;14.00;;;;;;5077944;28;47243;-67
2023/05/07 12:15:42;;;;;;;3.23;2.00;;;24.00;13.70;;;;;;5080660;28;46378;-67
2023/05/07 12:18:08;;;;;;;3.80;2.17;;;23.90;14.10;;;;;;5077510;28;46387;-67
2023/05/07 12:20:36;;;;;;;3.60;1.80;;;23.90;13.90;;;;;;5078845;28;46550;-67
2023/05/07 12:23:02;;;;;;;8.30;2.13;;;23.90;14.10;;;;;;5078136;28;47128;-68
2023/05/07 12:25:31;;;;;;;5.30;2.10;;;23.80;14.00;;;;;;5076887;28;46419;-68
2023/05/07 12:27:58;;;;;;;5.10;2.40;;;23.70;14.00;;;;;;5079948;28;46472;-67
2023/05/07 12:30:24;;;;;;;9.03;2.43;;;23.80;14.00;;;;;;5078002;28;46622;-67
2023/05/07 12:32:55;;;;;;;7.43;2.10;;;24.00;13.40;;;;;;5079799;28;46484;-67
2023/05/07 12:35:31;;;;;;;4.47;2.30;;;24.00;13.30;;;;;;5077950;28;46451;-67
2023/05/07 12:37:59;;;;;;;4.50;2.30;;;24.00;13.40;;;;;;5071836;28;46365;-67
2023/05/07 12:40:37;;;;;;;3.50;2.07;;;24.10;13.00;;;;;;5076430;28;46705;-66
2023/05/07 12:43:03;;;;;;;5.60;2.33;;;24.10;13.20;;;;;;5077492;28;46882;-66
2023/05/07 12:45:28;;;;;;;5.93;2.33;;;23.90;13.30;;;;;;5080568;28;46445;-66